Share

Granada, Nicaragua

2:23 AM CST en Abril 24, 2014 (GMT -0600)
Augusto Cesar Sandino (MNMG) Alt 184 ft | 12.14 °N, 86.17 °W | Change Station

Current weather conditions updated 1 hour ago

Mostly Cloudy
Muy nublado
81 ° F
Sensación térmica 84 ° F
N
7
Viento Variable Viento desde Este
Amanecer 5:27 AM
Atardecer 5:56 PM
Luna Creciente menguante

Hoy se prevé una temperatura muy similar a la de ayer.

Presión 29.83 pul
Visibilidad 4.3 Millas
Nubes Baja 2000 ft
Muy nublado 30000 ft
Índice de calor 84 ° F
Punto de rocío 70 ° F
Humedad 70%
Precipitaciones 0.00 pul
Espesor de la nieve No disponible.
UV 0 de una escala de 16
Polen No disponible.
Calidad del aire No disponible.
Flu Activity No disponible.
METAR MNMG 240700Z 09006KT 7000 FEW020 BKN300 27/21 Q1010 A2983 FU NO SIG

More Conditions Fewer Conditions

Presión 29.83 pul
Visibilidad 4.3 Millas
Nubes Baja 2000 ft
Muy nublado 30000 ft
Índice de calor 84 ° F
Punto de rocío 70 ° F
Humedad 70%
Precipitaciones 0.00 pul
Espesor de la nieve No disponible.
UV 0 de una escala de 16
Polen No disponible.
Calidad del aire No disponible.
Flu Activity No disponible.
METAR MNMG 240700Z 09006KT 7000 FEW020 BKN300 27/21 Q1010 A2983 FU NO SIG

More Conditions Fewer Conditions

10-Day Weather Forecast

Almanac

Astronomía

Apr. 24, 2014 Salida Puesta
Hora real 5:27 AM CST 5:56 PM CST
Crepúsculo civil 5:05 AM CST 6:18 PM CST
Crepúsculo náutico 4:40 AM CST 6:43 PM CST
Crepúsculo astronómico 4:14 AM CST 7:09 PM CST
Luna 1:45 AM CST 1:59 PM CST
Horas de luz 13h 12m
Horas de luz
12h 29m
Tomorrow will be 0m 36s longer.
Creciente menguante, 28% of the Moon is Illuminated
Hoy
Creciente menguante
Abr 29
Nueva
May 6
Cuarto creciente
May 14
Luna llena
May 21
Cuarto menguante

Extremos de ayer

Máximos del país Bajas del país

Community

  • Stacked
    Stacked
  • clouds approaching Red Sox Nation
    clouds approaching Red Sox Nation
  • Balance
    Balance
  • Nestled In
    Nestled In
  • Stunning Sunrise
    Stunning Sunrise

WunderPhotos

Upload Photos

1,704,575 ¡fotos cargadas!

WunderBlogs® & News

Nearby

Calidad del aire

Not available.

Grosos de nieve

Not available.

Temperaturas de aguas costeras

Lugar Temperatura
Sin partes meteorológicos de las estaciones

Actividad de terremotos

Ciudad Distance Mag. Tiempo y dato
No hay informes recientes de la actividad sísmica.
Magnitud mínima muestra es 2,5.

Estaciones meteorológicas cercanas

No hay estaciones meteorológicas personales en esta zona.

What do you think?

We're not finished. Please let us know what you like, what you don't like, and what you are still missing.